sensor_id;sensor_type;location;lat;lon;timestamp;temperature;humidity
38973;DHT22;25333;50.762;4.470;2022-10-16T00:01:34;13.50;99.90
38973;DHT22;25333;50.762;4.470;2022-10-16T00:04:01;13.50;99.90
38973;DHT22;25333;50.762;4.470;2022-10-16T00:06:28;13.50;99.90
38973;DHT22;25333;50.762;4.470;2022-10-16T00:08:54;13.50;99.90
38973;DHT22;25333;50.762;4.470;2022-10-16T00:11:25;13.50;99.90
38973;DHT22;25333;50.762;4.470;2022-10-16T00:13:55;13.50;99.90
38973;DHT22;25333;50.762;4.470;2022-10-16T00:16:21;13.50;99.90
38973;DHT22;25333;50.762;4.470;2022-10-16T00:18:47;13.50;99.90
38973;DHT22;25333;50.762;4.470;2022-10-16T00:21:16;13.50;99.90
38973;DHT22;25333;50.762;4.470;2022-10-16T00:23:42;13.50;99.90
38973;DHT22;25333;50.762;4.470;2022-10-16T00:26:13;13.50;99.90
38973;DHT22;25333;50.762;4.470;2022-10-16T00:28:40;13.50;99.90
38973;DHT22;25333;50.762;4.470;2022-10-16T00:31:08;13.50;99.90
38973;DHT22;25333;50.762;4.470;2022-10-16T00:33:35;13.50;99.90
38973;DHT22;25333;50.762;4.470;2022-10-16T00:36:02;13.50;99.90
38973;DHT22;25333;50.762;4.470;2022-10-16T00:38:28;13.50;99.90
38973;DHT22;25333;50.762;4.470;2022-10-16T00:40:54;13.50;99.90
38973;DHT22;25333;50.762;4.470;2022-10-16T00:43:42;13.50;99.90
38973;DHT22;25333;50.762;4.470;2022-10-16T00:46:40;13.50;99.90
38973;DHT22;25333;50.762;4.470;2022-10-16T00:49:16;13.40;99.90
38973;DHT22;25333;50.762;4.470;2022-10-16T00:51:47;13.40;99.90
38973;DHT22;25333;50.762;4.470;2022-10-16T00:54:17;13.40;99.90
38973;DHT22;25333;50.762;4.470;2022-10-16T00:56:45;13.40;99.90
38973;DHT22;25333;50.762;4.470;2022-10-16T00:59:19;13.40;99.90
38973;DHT22;25333;50.762;4.470;2022-10-16T01:01:45;13.40;99.90
38973;DHT22;25333;50.762;4.470;2022-10-16T01:04:11;13.40;99.90
38973;DHT22;25333;50.762;4.470;2022-10-16T01:06:47;13.30;99.90
38973;DHT22;25333;50.762;4.470;2022-10-16T01:09:25;13.30;99.90
38973;DHT22;25333;50.762;4.470;2022-10-16T01:14:43;13.40;99.90
38973;DHT22;25333;50.762;4.470;2022-10-16T01:17:27;13.40;99.90
38973;DHT22;25333;50.762;4.470;2022-10-16T01:20:16;13.40;99.90
38973;DHT22;25333;50.762;4.470;2022-10-16T01:28:49;13.40;99.90
38973;DHT22;25333;50.762;4.470;2022-10-16T01:31:19;13.40;99.90
38973;DHT22;25333;50.762;4.470;2022-10-16T01:33:54;13.40;99.90
38973;DHT22;25333;50.762;4.470;2022-10-16T01:36:26;13.30;99.90
38973;DHT22;25333;50.762;4.470;2022-10-16T01:38:56;13.30;99.90
38973;DHT22;25333;50.762;4.470;2022-10-16T01:41:44;13.30;99.90
38973;DHT22;25333;50.762;4.470;2022-10-16T01:44:19;13.30;99.90
38973;DHT22;25333;50.762;4.470;2022-10-16T01:46:47;13.30;99.90
38973;DHT22;25333;50.762;4.470;2022-10-16T01:49:14;13.30;99.90
38973;DHT22;25333;50.762;4.470;2022-10-16T01:51:42;13.30;99.90
38973;DHT22;25333;50.762;4.470;2022-10-16T01:54:09;13.30;99.90
38973;DHT22;25333;50.762;4.470;2022-10-16T01:56:36;13.30;99.90
38973;DHT22;25333;50.762;4.470;2022-10-16T01:59:09;13.30;99.90
38973;DHT22;25333;50.762;4.470;2022-10-16T02:01:38;13.30;99.90
38973;DHT22;25333;50.762;4.470;2022-10-16T02:04:14;13.30;99.90
38973;DHT22;25333;50.762;4.470;2022-10-16T02:06:41;13.30;99.90
38973;DHT22;25333;50.762;4.470;2022-10-16T02:09:07;13.20;99.90
38973;DHT22;25333;50.762;4.470;2022-10-16T02:11:33;13.20;99.90
38973;DHT22;25333;50.762;4.470;2022-10-16T02:14:02;13.20;99.90
38973;DHT22;25333;50.762;4.470;2022-10-16T02:16:41;13.20;99.90
38973;DHT22;25333;50.762;4.470;2022-10-16T02:19:07;13.20;99.90
38973;DHT22;25333;50.762;4.470;2022-10-16T02:21:41;13.20;99.90
38973;DHT22;25333;50.762;4.470;2022-10-16T02:26:44;13.20;99.90
38973;DHT22;25333;50.762;4.470;2022-10-16T02:29:15;13.20;99.90
38973;DHT22;25333;50.762;4.470;2022-10-16T02:31:44;13.30;99.90
38973;DHT22;25333;50.762;4.470;2022-10-16T02:34:13;13.30;99.90
38973;DHT22;25333;50.762;4.470;2022-10-16T02:36:40;13.30;99.90
38973;DHT22;25333;50.762;4.470;2022-10-16T02:39:06;13.30;99.90
38973;DHT22;25333;50.762;4.470;2022-10-16T02:41:33;13.20;99.90
38973;DHT22;25333;50.762;4.470;2022-10-16T02:43:59;13.30;99.90
38973;DHT22;25333;50.762;4.470;2022-10-16T02:46:24;13.30;99.90
38973;DHT22;25333;50.762;4.470;2022-10-16T02:48:50;13.30;99.90
38973;DHT22;25333;50.762;4.470;2022-10-16T02:51:16;13.30;99.90
38973;DHT22;25333;50.762;4.470;2022-10-16T02:53:41;13.30;99.90
38973;DHT22;25333;50.762;4.470;2022-10-16T02:56:07;13.30;99.90
38973;DHT22;25333;50.762;4.470;2022-10-16T02:58:32;13.30;99.90
38973;DHT22;25333;50.762;4.470;2022-10-16T03:00:58;13.30;99.90
38973;DHT22;25333;50.762;4.470;2022-10-16T03:03:24;13.30;99.90
38973;DHT22;25333;50.762;4.470;2022-10-16T03:05:49;13.30;99.90
38973;DHT22;25333;50.762;4.470;2022-10-16T03:08:15;13.30;99.90
38973;DHT22;25333;50.762;4.470;2022-10-16T03:10:40;13.30;99.90
38973;DHT22;25333;50.762;4.470;2022-10-16T03:13:06;13.30;99.90
38973;DHT22;25333;50.762;4.470;2022-10-16T03:15:32;13.30;99.90
38973;DHT22;25333;50.762;4.470;2022-10-16T03:17:58;13.30;99.90
38973;DHT22;25333;50.762;4.470;2022-10-16T03:20:24;13.30;99.90
38973;DHT22;25333;50.762;4.470;2022-10-16T03:22:49;13.30;99.90
38973;DHT22;25333;50.762;4.470;2022-10-16T03:25:15;13.30;99.90
38973;DHT22;25333;50.762;4.470;2022-10-16T03:27:41;13.30;99.90
38973;DHT22;25333;50.762;4.470;2022-10-16T03:30:07;13.30;99.90
38973;DHT22;25333;50.762;4.470;2022-10-16T03:32:33;13.30;99.90
38973;DHT22;25333;50.762;4.470;2022-10-16T03:34:58;13.30;99.90
38973;DHT22;25333;50.762;4.470;2022-10-16T03:37:24;13.30;99.90
38973;DHT22;25333;50.762;4.470;2022-10-16T03:39:49;13.30;99.90
38973;DHT22;25333;50.762;4.470;2022-10-16T03:42:15;13.30;99.90
38973;DHT22;25333;50.762;4.470;2022-10-16T03:44:41;13.20;99.90
38973;DHT22;25333;50.762;4.470;2022-10-16T03:47:06;13.20;99.90
38973;DHT22;25333;50.762;4.470;2022-10-16T03:49:32;13.30;99.90
38973;DHT22;25333;50.762;4.470;2022-10-16T03:51:57;13.20;99.90
38973;DHT22;25333;50.762;4.470;2022-10-16T03:54:23;13.30;99.90
38973;DHT22;25333;50.762;4.470;2022-10-16T03:56:48;13.30;99.90
38973;DHT22;25333;50.762;4.470;2022-10-16T03:59:14;13.30;99.90
38973;DHT22;25333;50.762;4.470;2022-10-16T04:01:40;13.30;99.90
38973;DHT22;25333;50.762;4.470;2022-10-16T04:04:05;13.20;99.90
38973;DHT22;25333;50.762;4.470;2022-10-16T04:06:31;13.20;99.90
38973;DHT22;25333;50.762;4.470;2022-10-16T04:08:57;13.20;99.90
38973;DHT22;25333;50.762;4.470;2022-10-16T04:11:22;13.20;99.90
38973;DHT22;25333;50.762;4.470;2022-10-16T04:13:48;13.20;99.90
38973;DHT22;25333;50.762;4.470;2022-10-16T04:16:14;13.10;99.90
38973;DHT22;25333;50.762;4.470;2022-10-16T04:18:39;13.10;99.90
38973;DHT22;25333;50.762;4.470;2022-10-16T04:21:06;13.10;99.90
38973;DHT22;25333;50.762;4.470;2022-10-16T04:23:32;13.10;99.90
38973;DHT22;25333;50.762;4.470;2022-10-16T04:25:58;13.10;99.90
38973;DHT22;25333;50.762;4.470;2022-10-16T04:28:24;13.20;99.90
38973;DHT22;25333;50.762;4.470;2022-10-16T04:30:49;13.20;99.90
38973;DHT22;25333;50.762;4.470;2022-10-16T04:33:15;13.20;99.90
38973;DHT22;25333;50.762;4.470;2022-10-16T04:35:40;13.20;99.90
38973;DHT22;25333;50.762;4.470;2022-10-16T04:38:06;13.20;99.90
38973;DHT22;25333;50.762;4.470;2022-10-16T04:40:32;13.20;99.90
38973;DHT22;25333;50.762;4.470;2022-10-16T04:43:04;13.10;99.90
38973;DHT22;25333;50.762;4.470;2022-10-16T04:45:30;13.10;99.90
38973;DHT22;25333;50.762;4.470;2022-10-16T04:47:59;13.10;99.90
38973;DHT22;25333;50.762;4.470;2022-10-16T04:50:25;13.10;99.90
38973;DHT22;25333;50.762;4.470;2022-10-16T04:52:51;13.10;99.90
38973;DHT22;25333;50.762;4.470;2022-10-16T04:55:16;13.10;99.90
38973;DHT22;25333;50.762;4.470;2022-10-16T04:57:42;13.10;99.90
38973;DHT22;25333;50.762;4.470;2022-10-16T05:00:08;13.10;99.90
38973;DHT22;25333;50.762;4.470;2022-10-16T05:02:34;13.10;99.90
38973;DHT22;25333;50.762;4.470;2022-10-16T05:05:00;13.00;99.90
38973;DHT22;25333;50.762;4.470;2022-10-16T05:07:26;13.00;99.90
38973;DHT22;25333;50.762;4.470;2022-10-16T05:09:51;12.90;99.90
38973;DHT22;25333;50.762;4.470;2022-10-16T05:12:17;12.90;99.90
38973;DHT22;25333;50.762;4.470;2022-10-16T05:14:42;12.90;99.90
38973;DHT22;25333;50.762;4.470;2022-10-16T05:17:08;12.90;99.90
38973;DHT22;25333;50.762;4.470;2022-10-16T05:19:33;12.90;99.90
38973;DHT22;25333;50.762;4.470;2022-10-16T05:21:59;12.90;99.90
38973;DHT22;25333;50.762;4.470;2022-10-16T05:24:25;12.90;99.90
38973;DHT22;25333;50.762;4.470;2022-10-16T05:26:51;12.90;99.90
38973;DHT22;25333;50.762;4.470;2022-10-16T05:29:17;12.80;99.90
38973;DHT22;25333;50.762;4.470;2022-10-16T05:31:42;12.90;99.90
38973;DHT22;25333;50.762;4.470;2022-10-16T05:34:08;12.90;99.90
38973;DHT22;25333;50.762;4.470;2022-10-16T05:36:33;12.90;99.90
38973;DHT22;25333;50.762;4.470;2022-10-16T05:38:59;12.90;99.90
38973;DHT22;25333;50.762;4.470;2022-10-16T05:41:25;12.90;99.90
38973;DHT22;25333;50.762;4.470;2022-10-16T05:43:52;12.90;99.90
38973;DHT22;25333;50.762;4.470;2022-10-16T05:46:18;12.90;99.90
38973;DHT22;25333;50.762;4.470;2022-10-16T05:48:44;12.80;99.90
38973;DHT22;25333;50.762;4.470;2022-10-16T05:51:11;12.80;99.90
38973;DHT22;25333;50.762;4.470;2022-10-16T05:53:39;12.80;99.90
38973;DHT22;25333;50.762;4.470;2022-10-16T05:56:06;12.90;99.90
38973;DHT22;25333;50.762;4.470;2022-10-16T05:58:37;12.90;99.90
38973;DHT22;25333;50.762;4.470;2022-10-16T06:01:05;12.90;99.90
38973;DHT22;25333;50.762;4.470;2022-10-16T06:03:32;12.90;99.90
38973;DHT22;25333;50.762;4.470;2022-10-16T06:05:58;12.90;99.90
38973;DHT22;25333;50.762;4.470;2022-10-16T06:08:23;12.90;99.90
38973;DHT22;25333;50.762;4.470;2022-10-16T06:11:01;12.90;99.90
38973;DHT22;25333;50.762;4.470;2022-10-16T06:13:27;12.90;99.90
38973;DHT22;25333;50.762;4.470;2022-10-16T06:15:52;12.90;99.90
38973;DHT22;25333;50.762;4.470;2022-10-16T06:18:18;12.90;99.90
38973;DHT22;25333;50.762;4.470;2022-10-16T06:20:44;12.90;99.90
38973;DHT22;25333;50.762;4.470;2022-10-16T06:23:09;12.80;99.90
38973;DHT22;25333;50.762;4.470;2022-10-16T06:25:35;12.80;99.90
38973;DHT22;25333;50.762;4.470;2022-10-16T06:28:00;12.90;99.90
38973;DHT22;25333;50.762;4.470;2022-10-16T06:30:26;12.90;99.90
38973;DHT22;25333;50.762;4.470;2022-10-16T06:32:52;12.90;99.90
38973;DHT22;25333;50.762;4.470;2022-10-16T06:35:17;12.80;99.90
38973;DHT22;25333;50.762;4.470;2022-10-16T06:37:43;12.80;99.90
38973;DHT22;25333;50.762;4.470;2022-10-16T06:40:33;12.80;99.90
38973;DHT22;25333;50.762;4.470;2022-10-16T06:42:59;12.80;99.90
38973;DHT22;25333;50.762;4.470;2022-10-16T06:45:24;12.80;99.90
38973;DHT22;25333;50.762;4.470;2022-10-16T06:48:08;12.80;99.90
38973;DHT22;25333;50.762;4.470;2022-10-16T06:50:33;12.80;99.90
38973;DHT22;25333;50.762;4.470;2022-10-16T06:52:59;12.80;99.90
38973;DHT22;25333;50.762;4.470;2022-10-16T06:55:32;12.80;99.90
38973;DHT22;25333;50.762;4.470;2022-10-16T07:01:23;12.90;99.90
38973;DHT22;25333;50.762;4.470;2022-10-16T07:04:11;12.90;99.90
38973;DHT22;25333;50.762;4.470;2022-10-16T07:07:06;13.00;99.90
38973;DHT22;25333;50.762;4.470;2022-10-16T07:09:42;13.10;99.90
38973;DHT22;25333;50.762;4.470;2022-10-16T07:12:11;13.20;99.90
38973;DHT22;25333;50.762;4.470;2022-10-16T07:14:39;13.30;99.90
38973;DHT22;25333;50.762;4.470;2022-10-16T07:17:08;13.40;99.90
38973;DHT22;25333;50.762;4.470;2022-10-16T07:19:36;13.50;99.90
38973;DHT22;25333;50.762;4.470;2022-10-16T07:22:02;13.50;99.90
38973;DHT22;25333;50.762;4.470;2022-10-16T07:27:02;13.70;99.90
38973;DHT22;25333;50.762;4.470;2022-10-16T07:32:12;13.90;99.90
38973;DHT22;25333;50.762;4.470;2022-10-16T08:01:23;14.80;99.90
38973;DHT22;25333;50.762;4.470;2022-10-16T08:04:18;14.80;99.90
38973;DHT22;25333;50.762;4.470;2022-10-16T08:06:46;14.80;99.90
38973;DHT22;25333;50.762;4.470;2022-10-16T08:09:23;14.90;99.90
38973;DHT22;25333;50.762;4.470;2022-10-16T08:11:49;14.90;99.90
38973;DHT22;25333;50.762;4.470;2022-10-16T08:14:22;14.90;99.90
38973;DHT22;25333;50.762;4.470;2022-10-16T08:20:04;15.00;99.90
38973;DHT22;25333;50.762;4.470;2022-10-16T08:22:35;15.10;99.90
38973;DHT22;25333;50.762;4.470;2022-10-16T08:25:02;15.20;99.90
38973;DHT22;25333;50.762;4.470;2022-10-16T08:28:04;15.20;99.90
38973;DHT22;25333;50.762;4.470;2022-10-16T08:39:25;15.40;99.90
38973;DHT22;25333;50.762;4.470;2022-10-16T08:42:16;15.40;99.90
38973;DHT22;25333;50.762;4.470;2022-10-16T09:03:27;15.90;99.90
38973;DHT22;25333;50.762;4.470;2022-10-16T09:23:49;16.50;99.90
38973;DHT22;25333;50.762;4.470;2022-10-16T09:26:27;16.60;99.90
38973;DHT22;25333;50.762;4.470;2022-10-16T09:37:05;16.70;99.90
38973;DHT22;25333;50.762;4.470;2022-10-16T09:54:55;17.50;99.90
38973;DHT22;25333;50.762;4.470;2022-10-16T10:05:28;18.00;99.90
38973;DHT22;25333;50.762;4.470;2022-10-16T10:07:59;18.10;99.90
38973;DHT22;25333;50.762;4.470;2022-10-16T10:10:27;18.20;99.90
38973;DHT22;25333;50.762;4.470;2022-10-16T10:12:54;18.30;99.90
38973;DHT22;25333;50.762;4.470;2022-10-16T10:15:21;18.30;99.90
38973;DHT22;25333;50.762;4.470;2022-10-16T10:18:18;18.30;99.90
38973;DHT22;25333;50.762;4.470;2022-10-16T10:21:02;18.20;99.90
38973;DHT22;25333;50.762;4.470;2022-10-16T10:23:35;18.10;99.90
38973;DHT22;25333;50.762;4.470;2022-10-16T10:26:18;18.20;99.90
38973;DHT22;25333;50.762;4.470;2022-10-16T10:35:07;18.50;99.90
38973;DHT22;25333;50.762;4.470;2022-10-16T10:38:04;18.40;99.90
38973;DHT22;25333;50.762;4.470;2022-10-16T10:41:01;18.40;99.90
38973;DHT22;25333;50.762;4.470;2022-10-16T10:46:32;18.60;99.90
38973;DHT22;25333;50.762;4.470;2022-10-16T10:55:39;18.80;99.30
38973;DHT22;25333;50.762;4.470;2022-10-16T11:01:16;18.90;99.90
38973;DHT22;25333;50.762;4.470;2022-10-16T11:07:04;18.80;99.90
38973;DHT22;25333;50.762;4.470;2022-10-16T11:15:50;18.60;99.80
38973;DHT22;25333;50.762;4.470;2022-10-16T11:18:45;18.50;99.90
38973;DHT22;25333;50.762;4.470;2022-10-16T11:24:24;18.20;99.90
38973;DHT22;25333;50.762;4.470;2022-10-16T11:27:17;18.20;99.90
38973;DHT22;25333;50.762;4.470;2022-10-16T11:29:57;18.30;99.90
38973;DHT22;25333;50.762;4.470;2022-10-16T11:32:35;18.30;99.90
38973;DHT22;25333;50.762;4.470;2022-10-16T11:35:44;18.30;99.90
38973;DHT22;25333;50.762;4.470;2022-10-16T11:38:20;18.30;99.90
38973;DHT22;25333;50.762;4.470;2022-10-16T11:40:53;18.40;99.90
38973;DHT22;25333;50.762;4.470;2022-10-16T11:43:32;18.50;99.90
38973;DHT22;25333;50.762;4.470;2022-10-16T11:46:13;18.40;99.90
38973;DHT22;25333;50.762;4.470;2022-10-16T11:49:03;18.40;99.80
38973;DHT22;25333;50.762;4.470;2022-10-16T11:51:51;18.30;99.90
38973;DHT22;25333;50.762;4.470;2022-10-16T11:54:44;18.20;99.90
38973;DHT22;25333;50.762;4.470;2022-10-16T11:57:23;18.10;99.90
38973;DHT22;25333;50.762;4.470;2022-10-16T11:59:57;18.10;99.90
38973;DHT22;25333;50.762;4.470;2022-10-16T12:06:02;18.20;99.90
38973;DHT22;25333;50.762;4.470;2022-10-16T12:08:30;18.20;99.90
38973;DHT22;25333;50.762;4.470;2022-10-16T12:14:03;18.30;99.90
38973;DHT22;25333;50.762;4.470;2022-10-16T12:16:28;18.20;99.90
38973;DHT22;25333;50.762;4.470;2022-10-16T12:19:12;18.20;99.90
38973;DHT22;25333;50.762;4.470;2022-10-16T12:21:38;18.30;99.90
38973;DHT22;25333;50.762;4.470;2022-10-16T12:24:04;18.30;99.90
38973;DHT22;25333;50.762;4.470;2022-10-16T12:26:39;18.30;99.90
38973;DHT22;25333;50.762;4.470;2022-10-16T12:31:47;18.20;99.90
38973;DHT22;25333;50.762;4.470;2022-10-16T12:34:28;18.30;99.90
38973;DHT22;25333;50.762;4.470;2022-10-16T12:36:55;18.30;99.90
38973;DHT22;25333;50.762;4.470;2022-10-16T12:39:25;18.30;99.90
38973;DHT22;25333;50.762;4.470;2022-10-16T12:42:04;18.30;99.90
38973;DHT22;25333;50.762;4.470;2022-10-16T12:44:56;18.20;99.90
38973;DHT22;25333;50.762;4.470;2022-10-16T12:47:46;18.10;99.90
38973;DHT22;25333;50.762;4.470;2022-10-16T12:50:34;18.10;99.90
38973;DHT22;25333;50.762;4.470;2022-10-16T12:53:01;18.00;99.90
38973;DHT22;25333;50.762;4.470;2022-10-16T12:55:41;18.00;99.90
38973;DHT22;25333;50.762;4.470;2022-10-16T12:58:24;18.00;99.90
38973;DHT22;25333;50.762;4.470;2022-10-16T13:01:00;18.10;99.90
38973;DHT22;25333;50.762;4.470;2022-10-16T13:03:52;18.10;99.90
38973;DHT22;25333;50.762;4.470;2022-10-16T13:07:04;18.10;99.90
38973;DHT22;25333;50.762;4.470;2022-10-16T13:14:46;18.30;99.90
38973;DHT22;25333;50.762;4.470;2022-10-16T13:18:05;18.30;99.90
38973;DHT22;25333;50.762;4.470;2022-10-16T13:21:09;18.30;99.90
38973;DHT22;25333;50.762;4.470;2022-10-16T13:26:17;18.30;99.90
38973;DHT22;25333;50.762;4.470;2022-10-16T13:28:46;18.20;99.90
38973;DHT22;25333;50.762;4.470;2022-10-16T13:31:23;18.20;99.90
38973;DHT22;25333;50.762;4.470;2022-10-16T13:33:51;18.30;99.90
38973;DHT22;25333;50.762;4.470;2022-10-16T13:40:12;18.40;99.90
38973;DHT22;25333;50.762;4.470;2022-10-16T13:43:19;18.50;99.80
38973;DHT22;25333;50.762;4.470;2022-10-16T13:46:18;18.50;99.90
38973;DHT22;25333;50.762;4.470;2022-10-16T13:48:44;18.50;99.90
38973;DHT22;25333;50.762;4.470;2022-10-16T13:51:18;18.40;99.30
38973;DHT22;25333;50.762;4.470;2022-10-16T13:54:01;18.40;99.80
38973;DHT22;25333;50.762;4.470;2022-10-16T13:56:29;18.30;99.60
38973;DHT22;25333;50.762;4.470;2022-10-16T13:59:04;18.30;99.60
38973;DHT22;25333;50.762;4.470;2022-10-16T14:01:35;18.30;99.90
38973;DHT22;25333;50.762;4.470;2022-10-16T14:04:08;18.30;99.70
38973;DHT22;25333;50.762;4.470;2022-10-16T14:06:44;18.30;99.90
38973;DHT22;25333;50.762;4.470;2022-10-16T14:09:16;18.40;99.90
38973;DHT22;25333;50.762;4.470;2022-10-16T14:11:56;18.40;99.90
38973;DHT22;25333;50.762;4.470;2022-10-16T14:14:25;18.40;99.90
38973;DHT22;25333;50.762;4.470;2022-10-16T14:17:18;18.40;99.90
38973;DHT22;25333;50.762;4.470;2022-10-16T14:19:49;18.40;99.90
38973;DHT22;25333;50.762;4.470;2022-10-16T14:22:41;18.40;99.90
38973;DHT22;25333;50.762;4.470;2022-10-16T14:25:26;18.50;99.90
38973;DHT22;25333;50.762;4.470;2022-10-16T14:28:18;18.50;99.90
38973;DHT22;25333;50.762;4.470;2022-10-16T14:30:51;18.50;99.90
38973;DHT22;25333;50.762;4.470;2022-10-16T14:36:14;18.60;99.90
38973;DHT22;25333;50.762;4.470;2022-10-16T14:39:05;18.60;99.90
38973;DHT22;25333;50.762;4.470;2022-10-16T14:41:32;18.70;99.90
38973;DHT22;25333;50.762;4.470;2022-10-16T14:44:06;18.60;99.70
38973;DHT22;25333;50.762;4.470;2022-10-16T14:46:52;18.60;99.90
38973;DHT22;25333;50.762;4.470;2022-10-16T14:49:24;18.50;99.40
38973;DHT22;25333;50.762;4.470;2022-10-16T14:52:00;18.50;99.70
38973;DHT22;25333;50.762;4.470;2022-10-16T14:54:48;18.50;99.90
38973;DHT22;25333;50.762;4.470;2022-10-16T14:57:18;18.40;99.90
38973;DHT22;25333;50.762;4.470;2022-10-16T14:59:45;18.40;99.70
38973;DHT22;25333;50.762;4.470;2022-10-16T15:02:23;18.40;99.90
38973;DHT22;25333;50.762;4.470;2022-10-16T15:04:50;18.40;99.90
38973;DHT22;25333;50.762;4.470;2022-10-16T15:07:16;18.40;99.90
38973;DHT22;25333;50.762;4.470;2022-10-16T15:09:45;18.50;99.90
38973;DHT22;25333;50.762;4.470;2022-10-16T15:12:10;18.40;99.90
38973;DHT22;25333;50.762;4.470;2022-10-16T15:14:37;18.50;99.90
38973;DHT22;25333;50.762;4.470;2022-10-16T15:17:03;18.50;99.90
38973;DHT22;25333;50.762;4.470;2022-10-16T15:19:29;18.50;99.90
38973;DHT22;25333;50.762;4.470;2022-10-16T15:21:55;18.50;99.90
38973;DHT22;25333;50.762;4.470;2022-10-16T15:24:26;18.50;99.90
38973;DHT22;25333;50.762;4.470;2022-10-16T15:27:03;18.50;99.90
38973;DHT22;25333;50.762;4.470;2022-10-16T15:29:33;18.50;99.90
38973;DHT22;25333;50.762;4.470;2022-10-16T15:32:01;18.50;99.90
38973;DHT22;25333;50.762;4.470;2022-10-16T15:34:29;18.50;99.90
38973;DHT22;25333;50.762;4.470;2022-10-16T15:36:54;18.50;99.90
38973;DHT22;25333;50.762;4.470;2022-10-16T15:39:23;18.30;99.90
38973;DHT22;25333;50.762;4.470;2022-10-16T15:41:48;18.40;99.90
38973;DHT22;25333;50.762;4.470;2022-10-16T15:44:17;18.40;99.90
38973;DHT22;25333;50.762;4.470;2022-10-16T15:46:42;18.40;99.90
38973;DHT22;25333;50.762;4.470;2022-10-16T15:49:11;18.40;99.90
38973;DHT22;25333;50.762;4.470;2022-10-16T15:51:39;18.30;99.90
38973;DHT22;25333;50.762;4.470;2022-10-16T15:54:07;18.30;99.90
38973;DHT22;25333;50.762;4.470;2022-10-16T15:56:33;18.20;99.90
38973;DHT22;25333;50.762;4.470;2022-10-16T15:58:59;18.10;99.90
38973;DHT22;25333;50.762;4.470;2022-10-16T16:01:26;18.10;99.90
38973;DHT22;25333;50.762;4.470;2022-10-16T16:04:00;18.10;99.90
38973;DHT22;25333;50.762;4.470;2022-10-16T16:06:29;18.00;99.90
38973;DHT22;25333;50.762;4.470;2022-10-16T16:08:55;18.00;99.90
38973;DHT22;25333;50.762;4.470;2022-10-16T16:11:21;17.90;99.90
38973;DHT22;25333;50.762;4.470;2022-10-16T16:13:49;17.90;99.90
38973;DHT22;25333;50.762;4.470;2022-10-16T16:16:17;17.80;99.90
38973;DHT22;25333;50.762;4.470;2022-10-16T16:22:12;17.80;99.90
38973;DHT22;25333;50.762;4.470;2022-10-16T16:24:37;17.70;99.90
38973;DHT22;25333;50.762;4.470;2022-10-16T16:27:09;17.60;99.90
38973;DHT22;25333;50.762;4.470;2022-10-16T16:29:56;17.60;99.90
38973;DHT22;25333;50.762;4.470;2022-10-16T16:32:35;17.50;99.90
38973;DHT22;25333;50.762;4.470;2022-10-16T16:35:12;17.40;99.90
38973;DHT22;25333;50.762;4.470;2022-10-16T16:37:47;17.30;99.90
38973;DHT22;25333;50.762;4.470;2022-10-16T16:40:45;17.40;99.90
38973;DHT22;25333;50.762;4.470;2022-10-16T16:43:11;17.30;99.90
38973;DHT22;25333;50.762;4.470;2022-10-16T16:45:37;17.20;99.90
38973;DHT22;25333;50.762;4.470;2022-10-16T16:48:50;17.20;99.90
38973;DHT22;25333;50.762;4.470;2022-10-16T16:51:32;17.10;99.90
38973;DHT22;25333;50.762;4.470;2022-10-16T16:53:58;17.20;99.90
38973;DHT22;25333;50.762;4.470;2022-10-16T16:56:25;17.20;99.90
38973;DHT22;25333;50.762;4.470;2022-10-16T17:01:55;17.10;99.90
38973;DHT22;25333;50.762;4.470;2022-10-16T17:04:21;17.10;99.90
38973;DHT22;25333;50.762;4.470;2022-10-16T17:06:46;17.10;99.90
38973;DHT22;25333;50.762;4.470;2022-10-16T17:09:12;17.00;99.90
38973;DHT22;25333;50.762;4.470;2022-10-16T17:11:41;17.00;99.90
38973;DHT22;25333;50.762;4.470;2022-10-16T17:14:08;16.90;99.90
38973;DHT22;25333;50.762;4.470;2022-10-16T17:16:36;16.90;99.90
38973;DHT22;25333;50.762;4.470;2022-10-16T17:19:04;17.00;99.90
38973;DHT22;25333;50.762;4.470;2022-10-16T17:21:30;16.90;99.90
38973;DHT22;25333;50.762;4.470;2022-10-16T17:23:58;16.90;99.90
38973;DHT22;25333;50.762;4.470;2022-10-16T17:26:23;16.90;99.90
38973;DHT22;25333;50.762;4.470;2022-10-16T17:28:54;16.80;99.90
38973;DHT22;25333;50.762;4.470;2022-10-16T17:31:26;16.80;99.90
38973;DHT22;25333;50.762;4.470;2022-10-16T17:33:51;16.90;99.90
38973;DHT22;25333;50.762;4.470;2022-10-16T17:36:18;16.80;99.90
38973;DHT22;25333;50.762;4.470;2022-10-16T17:38:44;16.70;99.90
38973;DHT22;25333;50.762;4.470;2022-10-16T17:41:18;16.70;99.90
38973;DHT22;25333;50.762;4.470;2022-10-16T17:43:45;16.70;99.90
38973;DHT22;25333;50.762;4.470;2022-10-16T17:46:12;16.80;99.90
38973;DHT22;25333;50.762;4.470;2022-10-16T17:48:40;16.70;99.90
38973;DHT22;25333;50.762;4.470;2022-10-16T17:51:07;16.50;99.90
38973;DHT22;25333;50.762;4.470;2022-10-16T17:53:34;16.50;99.90
38973;DHT22;25333;50.762;4.470;2022-10-16T17:56:07;16.50;99.90
38973;DHT22;25333;50.762;4.470;2022-10-16T17:58:33;16.50;99.90
38973;DHT22;25333;50.762;4.470;2022-10-16T18:00:59;16.50;99.90
38973;DHT22;25333;50.762;4.470;2022-10-16T18:03:25;16.40;99.90
38973;DHT22;25333;50.762;4.470;2022-10-16T18:05:52;16.50;99.90
38973;DHT22;25333;50.762;4.470;2022-10-16T18:08:18;16.50;99.90
38973;DHT22;25333;50.762;4.470;2022-10-16T18:10:45;16.40;99.90
38973;DHT22;25333;50.762;4.470;2022-10-16T18:13:20;16.40;99.90
38973;DHT22;25333;50.762;4.470;2022-10-16T18:15:46;16.40;99.90
38973;DHT22;25333;50.762;4.470;2022-10-16T18:18:11;16.30;99.90
38973;DHT22;25333;50.762;4.470;2022-10-16T18:20:37;16.20;99.90
38973;DHT22;25333;50.762;4.470;2022-10-16T18:23:03;16.30;99.90
38973;DHT22;25333;50.762;4.470;2022-10-16T18:25:29;16.30;99.90
38973;DHT22;25333;50.762;4.470;2022-10-16T18:27:54;16.30;99.90
38973;DHT22;25333;50.762;4.470;2022-10-16T18:30:20;16.40;99.90
38973;DHT22;25333;50.762;4.470;2022-10-16T18:32:47;16.30;99.90
38973;DHT22;25333;50.762;4.470;2022-10-16T18:35:12;16.20;99.90
38973;DHT22;25333;50.762;4.470;2022-10-16T18:44:22;16.00;99.90
38973;DHT22;25333;50.762;4.470;2022-10-16T18:46:50;16.00;99.90
38973;DHT22;25333;50.762;4.470;2022-10-16T18:49:19;15.90;99.90
38973;DHT22;25333;50.762;4.470;2022-10-16T18:54:35;16.10;99.90
38973;DHT22;25333;50.762;4.470;2022-10-16T18:57:02;16.00;99.90
38973;DHT22;25333;50.762;4.470;2022-10-16T18:59:27;16.10;99.90
38973;DHT22;25333;50.762;4.470;2022-10-16T19:01:53;16.00;99.90
38973;DHT22;25333;50.762;4.470;2022-10-16T19:04:22;16.00;99.90
38973;DHT22;25333;50.762;4.470;2022-10-16T19:06:51;16.00;99.90
38973;DHT22;25333;50.762;4.470;2022-10-16T19:09:26;16.00;99.90
38973;DHT22;25333;50.762;4.470;2022-10-16T19:11:57;16.00;99.90
38973;DHT22;25333;50.762;4.470;2022-10-16T19:14:28;16.00;99.90